FZAA/FIH METAR and TAF weather

Enter ICAO airport designator
Station Type Date Time Source
FZAA METAR 2020/09/26 23:00 UTC NOAA

FZAA 262300Z 00000KT 8000 FEW016 24/19 Q1012 NOSIG


Station Type Date Time Source
FZAA Decoded METAR 2020/09/26 23:00 UTC NOAA

Kinshasa / N'Djili, Congo, Democratic Republic of the (FZAA) 04-23S 015-26E 312M
Sep 26, 2020 - 07:00 PM EDT / 2020.09.26 2300 UTC
Wind: Calm:0
Visibility: 4 mile(s):0
Sky conditions: mostly clear
Temperature: 75 F (24 C)
Dew Point: 66 F (19 C)
Relative Humidity: 73%
Pressure (altimeter): 29.88 in. Hg (1012 hPa)
ob: FZAA 262300Z 00000KT 8000 FEW016 24/19 Q1012 NOSIG
cycle: 23

Station Type Date Time Source
FZAA TAF 2020/09/26 18:48 UTC NOAA

TAF TAF FZAA 261700Z 2618/2724 26004KT 8000 NSC
BECMG 2704/2706 BKN016
BECMG 2710/2712 32010KT SCT022 FEW030CB PROB30
TEMPO 2716/2720 TS

Example: see airport list